Time;durP1;ratioP1;P1;durP2;ratioP2;P2;SDS_P1;SDS_P2;PMS_P1;PMS_P2;Temp;Humidity;BMP_temperature;BMP_pressure;BME280_temperature;BME280_humidity;BME280_pressure;Samples;Min_cycle;Max_cycle;Signal;HPM_P1;HPM_P2
2022/05/04 00:00:56;;;;;;;15.85;9.13;;;14.10;91.10;;;;;;5031910;28;20217;-36
2022/05/04 00:03:25;;;;;;;15.43;10.13;;;14.00;91.00;;;;;;5026866;28;20746;-36
2022/05/04 00:05:53;;;;;;;14.10;9.63;;;14.00;91.20;;;;;;5043479;28;20197;-35
2022/05/04 00:08:20;;;;;;;16.57;9.90;;;13.90;91.10;;;;;;5035820;28;20215;-35
2022/05/04 00:10:47;;;;;;;13.55;9.32;;;13.90;91.20;;;;;;5030740;28;20217;-35
2022/05/04 00:13:14;;;;;;;12.20;9.43;;;13.80;91.00;;;;;;5043121;28;20504;-35
2022/05/04 00:15:42;;;;;;;15.37;9.47;;;13.80;91.00;;;;;;5047061;28;20649;-35
2022/05/04 00:18:09;;;;;;;14.80;9.63;;;13.70;91.00;;;;;;5043250;28;20228;-35
2022/05/04 00:20:37;;;;;;;15.23;9.83;;;13.70;91.10;;;;;;5034971;28;20738;-34
2022/05/04 00:23:04;;;;;;;14.67;9.33;;;13.60;91.00;;;;;;5031642;28;20204;-36
2022/05/04 00:25:31;;;;;;;15.13;10.05;;;13.60;91.00;;;;;;5028987;28;20232;-35
2022/05/04 00:28:00;;;;;;;13.90;8.80;;;13.60;91.10;;;;;;5041490;28;20318;-36
2022/05/04 00:30:27;;;;;;;12.60;9.53;;;13.60;91.00;;;;;;5037782;28;20200;-35
2022/05/04 00:32:55;;;;;;;14.53;9.87;;;13.50;91.40;;;;;;5026886;28;20578;-35
2022/05/04 00:35:29;;;;;;;15.43;9.43;;;13.40;91.20;;;;;;5028623;28;20213;-35
2022/05/04 00:37:58;;;;;;;16.83;10.20;;;13.40;91.10;;;;;;5036620;28;20197;-35
2022/05/04 00:40:25;;;;;;;14.30;9.27;;;13.40;91.30;;;;;;5017762;28;20274;-35
2022/05/04 00:42:55;;;;;;;13.83;8.43;;;13.30;91.20;;;;;;5026254;28;20252;-36
2022/05/04 00:45:24;;;;;;;14.15;8.85;;;13.30;91.00;;;;;;5030773;28;20208;-35
2022/05/04 00:47:52;;;;;;;13.85;9.45;;;13.30;91.10;;;;;;5032652;28;20632;-35
2022/05/04 00:50:21;;;;;;;15.87;8.90;;;13.30;91.40;;;;;;5028494;28;20201;-35
2022/05/04 00:52:52;;;;;;;15.03;9.37;;;13.20;91.20;;;;;;5040352;28;20216;-36
2022/05/04 00:55:20;;;;;;;13.53;8.47;;;13.20;91.10;;;;;;5038580;28;20744;-35
2022/05/04 01:00:36;;;;;;;15.20;9.17;;;13.10;91.10;;;;;;5036255;28;20371;-36
2022/05/04 01:03:05;;;;;;;15.13;9.20;;;13.00;91.10;;;;;;5046725;28;20215;-35
2022/05/04 01:05:32;;;;;;;11.27;8.67;;;12.90;91.10;;;;;;5041030;28;20295;-35
2022/05/04 01:08:00;;;;;;;15.63;9.37;;;12.90;90.90;;;;;;5035423;28;20235;-36
2022/05/04 01:10:27;;;;;;;13.87;9.20;;;12.90;91.20;;;;;;5042530;28;20615;-37
2022/05/04 01:12:55;;;;;;;13.03;8.93;;;12.80;91.10;;;;;;5044131;28;20205;-36
2022/05/04 01:15:23;;;;;;;16.07;9.57;;;12.80;91.40;;;;;;5038056;28;20204;-37
2022/05/04 01:17:51;;;;;;;14.57;8.43;;;12.70;91.10;;;;;;5038904;28;20262;-37
2022/05/04 01:20:24;;;;;;;15.53;8.77;;;12.60;90.90;;;;;;5044493;28;20564;-36
2022/05/04 01:22:52;;;;;;;15.35;9.38;;;12.60;90.90;;;;;;5032060;28;20280;-36
2022/05/04 01:25:20;;;;;;;15.13;8.77;;;12.60;91.10;;;;;;5039148;28;20203;-36
2022/05/04 01:27:47;;;;;;;13.27;9.10;;;12.50;90.90;;;;;;5041170;28;20303;-36
2022/05/04 01:30:14;;;;;;;14.07;9.10;;;12.50;90.90;;;;;;5037454;28;20207;-36
2022/05/04 01:32:41;;;;;;;19.93;10.07;;;12.40;91.30;;;;;;5033723;28;20284;-36
2022/05/04 01:35:13;;;;;;;14.40;9.10;;;12.40;91.10;;;;;;5035377;28;20678;-36
2022/05/04 01:37:42;;;;;;;15.23;9.00;;;12.30;91.00;;;;;;5027900;28;20320;-35
2022/05/04 01:40:10;;;;;;;17.33;9.00;;;12.20;91.20;;;;;;5033168;28;20244;-35
2022/05/04 01:42:37;;;;;;;12.73;9.20;;;12.20;91.00;;;;;;5039346;28;20201;-35
2022/05/04 01:45:05;;;;;;;15.70;9.23;;;12.20;91.20;;;;;;5035954;28;20246;-35
2022/05/04 01:47:32;;;;;;;17.67;9.17;;;12.10;91.00;;;;;;5045571;28;20216;-34
2022/05/04 01:50:04;;;;;;;11.97;8.60;;;12.10;91.00;;;;;;5039957;28;20753;-35
2022/05/04 01:52:33;;;;;;;14.47;8.43;;;12.00;91.10;;;;;;5035839;28;20250;-35
2022/05/04 01:55:01;;;;;;;16.80;9.43;;;12.00;91.00;;;;;;5031614;28;20215;-35
2022/05/04 01:57:28;;;;;;;15.73;9.23;;;12.00;91.00;;;;;;5044541;28;20381;-35
2022/05/04 01:59:56;;;;;;;17.63;9.23;;;12.00;91.20;;;;;;5037835;28;20309;-35
2022/05/04 02:02:25;;;;;;;15.73;9.20;;;12.00;91.10;;;;;;5027756;28;20282;-35
2022/05/04 02:04:54;;;;;;;13.97;9.53;;;11.90;91.00;;;;;;5033173;28;20219;-35
2022/05/04 02:07:21;;;;;;;15.97;8.93;;;11.90;91.10;;;;;;5037150;28;20193;-35
2022/05/04 02:09:48;;;;;;;16.33;8.60;;;11.90;91.10;;;;;;5026485;28;20696;-35
2022/05/04 02:12:16;;;;;;;15.27;9.00;;;11.90;91.10;;;;;;5035949;28;20251;-35
2022/05/04 02:14:43;;;;;;;14.53;8.73;;;11.90;91.00;;;;;;5026394;28;20255;-36
2022/05/04 02:17:15;;;;;;;17.17;8.23;;;11.80;91.10;;;;;;5027478;28;20192;-36
2022/05/04 02:19:45;;;;;;;10.93;8.87;;;11.80;91.00;;;;;;5033425;28;20721;-36
2022/05/04 02:22:12;;;;;;;13.67;8.80;;;11.80;91.10;;;;;;5035785;28;20708;-36
2022/05/04 02:24:40;;;;;;;16.38;8.57;;;11.80;91.00;;;;;;5040971;28;20213;-36
2022/05/04 02:27:07;;;;;;;12.17;8.33;;;11.80;91.30;;;;;;5030437;28;20659;-36
2022/05/04 02:29:34;;;;;;;14.63;10.10;;;11.80;91.10;;;;;;5039638;28;20594;-36
2022/05/04 02:32:04;;;;;;;12.93;8.90;;;11.80;91.40;;;;;;5029812;28;20258;-36
2022/05/04 02:34:31;;;;;;;13.30;8.90;;;11.80;91.20;;;;;;5034497;28;20651;-36
2022/05/04 02:39:46;;;;;;;14.63;8.27;;;11.80;91.20;;;;;;5040500;28;20290;-36
2022/05/04 02:42:13;;;;;;;16.73;8.80;;;11.80;91.30;;;;;;5030886;28;20212;-36
2022/05/04 02:44:48;;;;;;;15.60;9.47;;;11.80;91.20;;;;;;5040926;28;20204;-36
2022/05/04 02:47:15;;;;;;;12.83;8.33;;;11.80;91.20;;;;;;5051203;28;20295;-36
2022/05/04 02:49:43;;;;;;;12.33;8.30;;;11.80;91.20;;;;;;5040209;28;20412;-36
2022/05/04 02:52:10;;;;;;;14.00;8.37;;;11.80;91.20;;;;;;5032331;28;20201;-36
2022/05/04 02:54:39;;;;;;;13.93;8.53;;;11.90;91.30;;;;;;5038247;28;20215;-36
2022/05/04 02:57:07;;;;;;;14.50;8.40;;;11.90;91.40;;;;;;5031191;28;20241;-36
2022/05/04 02:59:34;;;;;;;14.10;8.50;;;11.90;91.60;;;;;;5051863;28;20197;-36
2022/05/04 03:04:47;;;;;;;11.73;8.10;;;11.90;91.60;;;;;;5030416;28;20576;-35
2022/05/04 03:07:14;;;;;;;13.13;8.33;;;11.90;91.40;;;;;;5032545;28;20286;-35
2022/05/04 03:09:42;;;;;;;15.43;8.35;;;11.90;91.40;;;;;;5035368;28;20320;-35
2022/05/04 03:12:09;;;;;;;14.17;7.67;;;11.90;91.60;;;;;;5037817;28;20219;-35
2022/05/04 03:14:36;;;;;;;13.03;8.07;;;12.00;91.50;;;;;;5045069;28;20256;-35
2022/05/04 03:17:06;;;;;;;13.97;7.90;;;12.00;91.50;;;;;;5029700;28;20204;-35
2022/05/04 03:19:36;;;;;;;15.00;7.37;;;12.00;91.50;;;;;;5029589;28;21020;-35
2022/05/04 03:22:06;;;;;;;14.77;7.87;;;12.00;91.50;;;;;;5039563;28;20212;-36
2022/05/04 03:24:35;;;;;;;9.33;7.03;;;12.00;91.50;;;;;;5034607;28;20204;-36
2022/05/04 03:27:02;;;;;;;9.57;7.43;;;12.00;91.50;;;;;;5040285;28;20318;-36
2022/05/04 03:29:30;;;;;;;12.63;8.02;;;12.10;91.70;;;;;;5036780;28;20212;-36
2022/05/04 03:31:57;;;;;;;11.27;7.77;;;12.10;91.60;;;;;;5028753;28;20197;-36
2022/05/04 03:34:24;;;;;;;13.67;8.27;;;12.10;91.60;;;;;;5047301;28;20661;-36
2022/05/04 03:36:52;;;;;;;12.10;8.00;;;12.00;91.70;;;;;;5065468;28;20212;-36
2022/05/04 03:39:22;;;;;;;12.13;8.00;;;12.00;91.50;;;;;;5038646;28;20239;-36
2022/05/04 03:41:49;;;;;;;13.97;7.70;;;12.00;91.60;;;;;;5048132;28;20501;-36
2022/05/04 03:44:16;;;;;;;10.80;8.00;;;12.00;91.90;;;;;;5030880;28;20205;-36
2022/05/04 03:46:49;;;;;;;13.77;7.65;;;11.90;91.50;;;;;;5027111;28;20355;-36
2022/05/04 03:49:18;;;;;;;14.50;7.90;;;11.90;91.60;;;;;;5029254;28;20311;-36
2022/05/04 03:51:46;;;;;;;15.80;8.43;;;11.90;91.50;;;;;;5040086;28;20204;-36
2022/05/04 03:54:16;;;;;;;13.20;7.90;;;11.90;91.60;;;;;;5045943;28;20591;-35
2022/05/04 03:56:43;;;;;;;13.10;8.23;;;11.90;91.60;;;;;;5048389;28;20282;-39
2022/05/04 03:59:11;;;;;;;14.10;7.47;;;11.90;91.50;;;;;;5036432;28;20275;-36
2022/05/04 04:01:38;;;;;;;13.17;7.60;;;11.90;91.50;;;;;;5040553;28;20691;-36
2022/05/04 04:04:06;;;;;;;11.73;7.63;;;11.90;91.50;;;;;;5030541;28;20296;-36
2022/05/04 04:06:36;;;;;;;12.03;7.87;;;11.90;91.60;;;;;;5029267;28;20296;-36
2022/05/04 04:09:03;;;;;;;11.10;7.47;;;11.80;91.60;;;;;;5035958;28;20217;-36
2022/05/04 04:11:33;;;;;;;14.37;7.97;;;11.80;91.60;;;;;;5029437;28;20263;-36
2022/05/04 04:14:01;;;;;;;11.73;7.80;;;11.90;91.60;;;;;;5030285;28;20209;-36
2022/05/04 04:16:29;;;;;;;13.33;7.30;;;11.90;91.80;;;;;;5032304;28;20197;-36
2022/05/04 04:18:56;;;;;;;12.33;7.77;;;11.90;91.70;;;;;;5038400;28;20656;-36
2022/05/04 04:24:09;;;;;;;13.57;7.80;;;11.90;91.70;;;;;;5030382;28;20698;-36
2022/05/04 04:26:40;;;;;;;11.73;7.57;;;11.90;91.70;;;;;;5036938;28;20240;-36
2022/05/04 04:29:07;;;;;;;15.45;7.80;;;11.90;91.70;;;;;;5048223;28;20322;-36
2022/05/04 04:31:37;;;;;;;10.47;6.90;;;11.90;91.70;;;;;;5032500;28;20197;-36
2022/05/04 04:34:07;;;;;;;13.40;7.80;;;11.90;91.70;;;;;;5031598;28;20837;-36
2022/05/04 04:36:39;;;;;;;12.03;7.70;;;11.90;91.70;;;;;;5033492;28;20582;-36
2022/05/04 04:39:09;;;;;;;10.63;6.93;;;11.90;91.70;;;;;;5043865;28;20224;-36
2022/05/04 04:41:36;;;;;;;13.80;8.03;;;12.00;91.80;;;;;;5034102;28;20204;-35
2022/05/04 04:44:03;;;;;;;15.17;7.30;;;12.00;91.80;;;;;;5037970;28;20205;-36
2022/05/04 04:46:31;;;;;;;14.03;7.53;;;12.00;91.80;;;;;;5032849;28;20204;-36
2022/05/04 04:48:58;;;;;;;11.77;7.57;;;12.00;91.80;;;;;;5045125;28;20726;-36
2022/05/04 04:51:25;;;;;;;12.17;7.10;;;12.10;91.90;;;;;;5040637;28;20200;-36
2022/05/04 04:53:53;;;;;;;14.60;7.83;;;12.10;91.90;;;;;;5030949;28;20635;-36
2022/05/04 04:56:20;;;;;;;12.70;7.83;;;12.10;91.90;;;;;;5036086;28;20646;-36
2022/05/04 04:58:47;;;;;;;11.80;7.60;;;12.20;91.90;;;;;;5045767;28;20209;-36
2022/05/04 05:01:18;;;;;;;12.77;7.00;;;12.10;91.90;;;;;;5024025;28;20597;-36
2022/05/04 05:03:45;;;;;;;15.50;7.47;;;12.20;91.90;;;;;;5028029;28;20567;-35
2022/05/04 05:06:15;;;;;;;11.00;6.87;;;12.20;91.90;;;;;;5031463;28;20192;-35
2022/05/04 05:08:42;;;;;;;12.33;7.77;;;12.20;92.00;;;;;;5033275;28;21048;-35
2022/05/04 05:11:12;;;;;;;12.87;7.50;;;12.20;92.00;;;;;;5028888;28;20218;-35
2022/05/04 05:16:26;;;;;;;13.83;7.43;;;12.30;92.00;;;;;;5029585;28;20188;-36
2022/05/04 05:18:55;;;;;;;11.13;6.87;;;12.30;92.00;;;;;;5031918;28;20205;-35
2022/05/04 05:21:23;;;;;;;11.27;7.00;;;12.30;92.00;;;;;;5028145;28;20212;-35
2022/05/04 05:23:50;;;;;;;9.37;5.97;;;12.40;92.00;;;;;;5040128;28;20216;-35
2022/05/04 05:26:19;;;;;;;8.80;6.87;;;12.40;92.10;;;;;;5046199;28;20200;-35
2022/05/04 05:28:49;;;;;;;10.17;6.93;;;12.40;92.10;;;;;;5041914;28;20212;-35
2022/05/04 05:31:21;;;;;;;14.43;6.90;;;12.50;92.10;;;;;;5032340;28;20215;-35
2022/05/04 05:33:49;;;;;;;9.20;6.17;;;12.50;92.10;;;;;;5039246;28;20594;-35
2022/05/04 05:36:16;;;;;;;10.13;6.67;;;12.50;92.10;;;;;;5034193;28;20208;-35
2022/05/04 05:38:43;;;;;;;11.30;6.80;;;12.60;92.10;;;;;;5036984;28;20235;-35
2022/05/04 05:41:10;;;;;;;10.27;6.47;;;12.60;92.10;;;;;;5036319;28;20246;-35
2022/05/04 05:43:38;;;;;;;10.00;6.77;;;12.60;92.20;;;;;;5038337;28;20220;-35
2022/05/04 05:46:05;;;;;;;14.05;6.45;;;12.60;92.20;;;;;;5044717;28;20200;-35
2022/05/04 05:48:35;;;;;;;9.57;6.37;;;12.70;92.20;;;;;;5036974;28;20208;-35
2022/05/04 05:51:05;;;;;;;11.00;6.50;;;12.70;92.20;;;;;;5029499;28;20236;-35
2022/05/04 05:53:32;;;;;;;13.40;6.67;;;12.70;92.20;;;;;;5040765;28;20204;-35
2022/05/04 05:56:04;;;;;;;14.65;6.45;;;12.80;92.30;;;;;;5033547;28;20232;-36
2022/05/04 05:58:32;;;;;;;10.07;6.60;;;12.80;92.20;;;;;;5032012;28;20598;-35
2022/05/04 06:00:59;;;;;;;10.87;7.03;;;12.80;92.30;;;;;;5023088;28;21431;-35
2022/05/04 06:03:26;;;;;;;12.93;6.77;;;12.80;92.50;;;;;;5031978;28;20481;-35
2022/05/04 06:05:56;;;;;;;11.85;6.70;;;12.80;92.40;;;;;;5039857;28;20212;-36
2022/05/04 06:08:25;;;;;;;10.60;6.10;;;12.80;92.30;;;;;;5028766;28;20217;-35
2022/05/04 06:10:55;;;;;;;16.48;6.72;;;12.90;92.40;;;;;;5034632;28;20220;-35
2022/05/04 06:13:22;;;;;;;10.13;6.77;;;12.90;92.40;;;;;;5027592;28;20224;-35
2022/05/04 06:15:51;;;;;;;10.73;6.80;;;13.00;92.40;;;;;;5039383;28;20377;-35
2022/05/04 07:30:03;;;;;;;14.95;7.57;;;13.40;92.40;;;;;;5009899;28;20291;-36
2022/05/04 07:32:33;;;;;;;13.27;7.50;;;13.40;92.50;;;;;;5030793;28;20225;-35
2022/05/04 07:35:05;;;;;;;12.98;7.93;;;13.40;92.50;;;;;;5027096;28;20205;-35
2022/05/04 07:37:32;;;;;;;15.60;7.90;;;13.50;92.50;;;;;;5031948;28;20204;-35
2022/05/04 07:42:52;;;;;;;14.13;7.17;;;13.50;92.50;;;;;;5031028;28;20741;-36
2022/05/04 07:45:19;;;;;;;14.95;8.10;;;13.60;92.50;;;;;;5040900;28;20196;-36
2022/05/04 07:47:47;;;;;;;16.27;9.10;;;13.60;92.50;;;;;;5043509;28;20201;-35
2022/05/04 07:50:14;;;;;;;15.80;8.10;;;13.70;92.60;;;;;;5041492;28;20254;-36
2022/05/04 07:52:46;;;;;;;14.80;8.10;;;13.70;92.60;;;;;;5034741;28;20235;-36
2022/05/04 07:55:13;;;;;;;13.53;7.93;;;13.80;92.60;;;;;;5026759;28;20581;-36
2022/05/04 07:57:43;;;;;;;12.57;7.60;;;13.80;92.70;;;;;;5033836;28;20205;-36
2022/05/04 08:05:47;;;;;;;12.20;7.72;;;14.00;92.80;;;;;;5029109;28;20201;-36
2022/05/04 08:08:15;;;;;;;12.13;7.38;;;14.10;92.80;;;;;;5029910;28;20586;-35
2022/05/04 08:10:42;;;;;;;12.50;7.80;;;14.10;92.80;;;;;;5045615;28;20843;-36
2022/05/04 08:13:09;;;;;;;11.93;7.03;;;14.20;92.80;;;;;;5033459;28;20624;-36
2022/05/04 08:15:37;;;;;;;12.05;7.20;;;14.20;92.80;;;;;;5032575;28;20200;-36
2022/05/04 08:18:04;;;;;;;14.25;9.07;;;14.30;92.90;;;;;;5034338;28;20246;-36
2022/05/04 08:20:32;;;;;;;15.82;8.85;;;14.30;92.90;;;;;;5042441;28;20251;-36
2022/05/04 08:22:59;;;;;;;16.23;9.60;;;14.40;92.90;;;;;;5042896;28;20245;-36
2022/05/04 08:25:27;;;;;;;12.43;8.55;;;14.40;92.90;;;;;;5038817;28;20619;-36
2022/05/04 08:27:54;;;;;;;17.35;9.85;;;14.50;92.90;;;;;;5037627;28;20220;-36
2022/05/04 08:30:21;;;;;;;13.25;9.20;;;14.50;92.90;;;;;;5046439;28;20263;-36
2022/05/04 08:32:50;;;;;;;19.87;10.53;;;14.60;93.00;;;;;;5035855;28;20262;-36
2022/05/04 08:35:17;;;;;;;16.85;10.40;;;14.60;92.90;;;;;;5031715;28;20793;-36
2022/05/04 08:37:46;;;;;;;18.85;11.80;;;14.70;92.90;;;;;;5032445;28;20722;-36
2022/05/04 08:40:16;;;;;;;17.63;11.90;;;14.70;92.90;;;;;;5044169;28;20196;-36
2022/05/04 08:42:45;;;;;;;16.83;10.60;;;14.70;92.90;;;;;;5049303;28;20622;-36
2022/05/04 08:45:14;;;;;;;24.23;12.05;;;14.70;92.80;;;;;;5043119;28;20296;-36
2022/05/04 08:47:45;;;;;;;17.77;11.20;;;14.70;92.80;;;;;;5029982;28;20255;-35
2022/05/04 08:50:15;;;;;;;24.65;12.05;;;14.70;92.80;;;;;;5020962;28;20224;-39
2022/05/04 08:52:53;;;;;;;19.77;12.13;;;14.70;92.80;;;;;;5029861;28;20205;-36
2022/05/04 08:55:22;;;;;;;17.23;10.83;;;14.70;92.80;;;;;;5015023;28;20241;-35
2022/05/04 09:02:17;;;;;;;15.27;11.57;;;14.70;92.80;;;;;;5031599;28;20212;-36
2022/05/04 09:04:45;;;;;;;16.90;11.67;;;14.70;92.80;;;;;;5034590;28;20320;-36
2022/05/04 09:07:22;;;;;;;17.33;11.73;;;14.70;92.80;;;;;;5040366;28;20227;-36
2022/05/04 09:09:52;;;;;;;16.63;11.77;;;14.70;92.80;;;;;;5033589;28;20219;-35
2022/05/04 09:12:20;;;;;;;14.93;11.07;;;14.80;92.90;;;;;;5045782;28;20213;-36
2022/05/04 09:14:47;;;;;;;14.43;11.13;;;14.80;92.80;;;;;;5028077;28;20196;-36
2022/05/04 09:17:16;;;;;;;19.88;12.35;;;14.90;92.90;;;;;;5046060;28;20200;-37
2022/05/04 09:22:50;;;;;;;18.25;12.98;;;14.90;92.80;;;;;;5027900;28;20208;-36
2022/05/04 09:25:19;;;;;;;16.48;10.77;;;15.00;92.80;;;;;;5035321;28;20237;-36
2022/05/04 09:27:48;;;;;;;18.27;11.23;;;15.00;92.80;;;;;;5028153;28;20606;-36
2022/05/04 09:30:16;;;;;;;21.17;13.07;;;15.00;92.80;;;;;;5027343;28;20644;-36
2022/05/04 09:32:46;;;;;;;14.75;10.98;;;15.00;92.90;;;;;;5036094;28;20231;-36
2022/05/04 09:35:14;;;;;;;18.75;12.07;;;15.10;93.00;;;;;;5047065;28;20574;-35
2022/05/04 09:46:08;;;;;;;14.23;9.98;;;15.20;92.80;;;;;;5027847;28;20231;-36
2022/05/04 09:48:36;;;;;;;16.30;10.48;;;15.20;92.80;;;;;;5038712;28;20294;-36
2022/05/04 09:51:10;;;;;;;16.90;11.02;;;15.30;92.60;;;;;;5045875;28;20732;-36
2022/05/04 09:53:38;;;;;;;19.40;12.15;;;15.20;92.70;;;;;;5036467;28;20257;-37
2022/05/04 09:56:07;;;;;;;14.82;10.68;;;15.20;93.00;;;;;;5030594;28;20239;-37
2022/05/04 09:58:37;;;;;;;17.20;11.13;;;15.20;92.70;;;;;;5031736;28;20303;-37
2022/05/04 10:01:05;;;;;;;19.38;11.75;;;15.20;92.70;;;;;;5033617;28;20224;-37
2022/05/04 10:03:37;;;;;;;17.25;11.38;;;15.20;92.70;;;;;;5028387;28;20197;-36
2022/05/04 10:06:05;;;;;;;17.13;11.43;;;15.30;92.70;;;;;;5044577;28;20675;-36
2022/05/04 10:08:32;;;;;;;21.52;11.98;;;15.40;92.60;;;;;;5041335;28;20253;-37
2022/05/04 10:10:59;;;;;;;18.75;11.10;;;15.50;92.70;;;;;;5033268;28;20224;-37
2022/05/04 10:13:30;;;;;;;16.17;12.05;;;15.50;92.70;;;;;;5028239;28;20604;-37
2022/05/04 10:15:59;;;;;;;21.05;12.15;;;15.60;92.50;;;;;;5037999;28;20200;-38
2022/05/04 10:18:31;;;;;;;16.63;12.02;;;15.60;92.50;;;;;;5029375;28;20224;-38
2022/05/04 10:21:19;;;;;;;15.13;10.70;;;15.60;92.60;;;;;;5030850;28;20231;-38
2022/05/04 10:23:55;;;;;;;17.05;11.07;;;15.70;92.80;;;;;;5023741;28;20208;-36
2022/05/04 10:26:33;;;;;;;15.15;10.90;;;15.70;92.80;;;;;;5032079;28;20220;-36
2022/05/04 10:32:48;;;;;;;15.65;11.05;;;15.80;92.90;;;;;;5029366;28;20228;-35
2022/05/04 10:35:24;;;;;;;16.73;11.20;;;15.90;92.70;;;;;;5026016;28;20207;-36
2022/05/04 10:37:53;;;;;;;21.75;12.40;;;15.90;92.80;;;;;;5037122;28;20393;-36
2022/05/04 10:40:30;;;;;;;19.38;13.43;;;15.90;92.60;;;;;;5028817;28;20710;-35
2022/05/04 10:43:01;;;;;;;18.90;13.02;;;15.90;92.50;;;;;;5026008;28;20200;-35
2022/05/04 10:45:32;;;;;;;18.02;12.00;;;15.90;92.60;;;;;;5029008;28;20204;-35
2022/05/04 10:48:20;;;;;;;17.63;11.02;;;15.90;92.70;;;;;;5033691;28;20700;-35
2022/05/04 10:50:52;;;;;;;17.00;11.57;;;16.00;92.90;;;;;;5030550;28;20220;-35
2022/05/04 10:53:43;;;;;;;15.95;11.73;;;16.00;92.90;;;;;;5041206;28;20197;-35
2022/05/04 10:56:22;;;;;;;16.92;12.45;;;16.10;92.90;;;;;;5039130;28;20342;-35
2022/05/04 10:58:50;;;;;;;17.35;12.18;;;16.10;92.90;;;;;;5038181;28;20208;-35
2022/05/04 11:01:25;;;;;;;16.88;12.15;;;16.10;93.00;;;;;;5034458;28;20208;-36
2022/05/04 11:04:11;;;;;;;18.30;12.48;;;16.20;93.00;;;;;;5031921;28;20219;-36
2022/05/04 11:06:49;;;;;;;15.73;11.70;;;16.20;93.00;;;;;;5032281;28;20200;-36
2022/05/04 11:09:19;;;;;;;17.55;12.20;;;16.20;92.90;;;;;;5033641;28;20192;-36
2022/05/04 11:11:53;;;;;;;17.15;11.55;;;16.30;92.90;;;;;;5042947;28;20619;-36
2022/05/04 11:14:22;;;;;;;15.55;11.10;;;16.40;92.90;;;;;;5042849;28;20201;-35
2022/05/04 11:16:52;;;;;;;17.98;11.02;;;16.40;92.90;;;;;;5040503;28;20201;-36
2022/05/04 11:19:23;;;;;;;18.90;12.38;;;16.50;92.90;;;;;;5038131;28;20208;-35
2022/05/04 11:21:50;;;;;;;18.25;12.57;;;16.50;92.70;;;;;;5039130;28;20213;-35
2022/05/04 11:24:17;;;;;;;20.17;12.95;;;16.40;92.60;;;;;;5038335;28;20224;-35
2022/05/04 11:26:50;;;;;;;12.80;9.88;;;16.50;92.60;;;;;;5036153;28;20204;-35
2022/05/04 11:29:22;;;;;;;14.30;10.43;;;16.50;92.80;;;;;;5039252;28;20212;-36
2022/05/04 11:31:57;;;;;;;15.25;11.10;;;16.50;92.80;;;;;;5030144;28;20237;-36
2022/05/04 11:34:36;;;;;;;14.45;11.23;;;16.60;92.90;;;;;;5032184;28;20204;-36
2022/05/04 11:37:09;;;;;;;13.50;10.05;;;16.70;93.00;;;;;;5028005;28;20197;-35
2022/05/04 11:39:38;;;;;;;15.15;9.35;;;16.70;93.00;;;;;;5028544;28;20226;-35
2022/05/04 11:42:12;;;;;;;16.17;11.80;;;16.80;93.10;;;;;;5038826;28;20724;-36
2022/05/04 11:44:46;;;;;;;21.10;13.50;;;16.80;93.00;;;;;;5030900;28;20224;-36
2022/05/04 11:47:16;;;;;;;17.25;11.80;;;16.90;92.50;;;;;;5030519;28;20219;-36
2022/05/04 11:49:45;;;;;;;17.67;11.68;;;17.00;92.50;;;;;;5039020;28;20239;-36
2022/05/04 11:52:14;;;;;;;13.38;10.52;;;17.00;92.80;;;;;;5049585;28;20672;-36
2022/05/04 11:54:45;;;;;;;17.00;11.10;;;17.00;92.60;;;;;;5048246;28;20616;-36
2022/05/04 11:57:13;;;;;;;15.73;11.05;;;17.10;92.20;;;;;;5031962;28;20957;-36
2022/05/04 11:59:41;;;;;;;22.92;10.30;;;17.10;92.10;;;;;;5045136;28;20224;-36
2022/05/04 12:02:08;;;;;;;13.20;9.45;;;17.10;92.60;;;;;;5049484;28;20223;-36
2022/05/04 12:04:37;;;;;;;14.60;10.07;;;17.10;92.30;;;;;;5043927;28;20310;-36
2022/05/04 12:07:05;;;;;;;15.65;10.10;;;17.20;92.20;;;;;;5034742;28;20204;-36
2022/05/04 12:09:33;;;;;;;15.63;10.23;;;17.10;92.20;;;;;;5029038;28;20292;-36
2022/05/04 12:12:03;;;;;;;13.60;9.40;;;17.10;92.30;;;;;;5029498;28;20239;-36
2022/05/04 12:14:33;;;;;;;16.27;10.13;;;17.20;92.40;;;;;;5037420;28;20209;-36
2022/05/04 12:17:00;;;;;;;15.05;9.82;;;17.20;92.40;;;;;;5042743;28;20234;-36
2022/05/04 12:19:29;;;;;;;18.42;10.55;;;17.30;92.60;;;;;;5037964;28;20212;-35
2022/05/04 12:21:59;;;;;;;14.95;9.43;;;17.30;92.50;;;;;;5027648;28;20508;-36
2022/05/04 12:24:26;;;;;;;15.95;10.52;;;17.30;92.60;;;;;;5034030;28;20283;-36
2022/05/04 12:26:55;;;;;;;14.20;10.40;;;17.40;92.30;;;;;;5049071;28;20585;-36
2022/05/04 12:34:56;;;;;;;16.17;8.68;;;17.50;92.20;;;;;;5027444;28;20219;-36
2022/05/04 12:37:31;;;;;;;15.90;8.98;;;17.60;92.70;;;;;;5043416;28;20305;-36
2022/05/04 12:40:01;;;;;;;13.65;9.75;;;17.60;92.00;;;;;;5033063;28;20231;-35
2022/05/04 12:42:33;;;;;;;15.02;9.35;;;17.70;92.10;;;;;;5029874;28;20213;-36
2022/05/04 12:45:03;;;;;;;18.33;9.88;;;17.70;91.60;;;;;;5028770;28;20220;-36
2022/05/04 12:47:33;;;;;;;13.25;7.82;;;17.80;91.70;;;;;;5044904;28;20266;-36
2022/05/04 12:50:01;;;;;;;11.93;7.88;;;17.80;92.20;;;;;;5033900;28;20202;-35
2022/05/04 12:52:28;;;;;;;14.02;7.85;;;17.80;92.40;;;;;;5028668;28;20224;-39
2022/05/04 12:54:55;;;;;;;12.27;7.97;;;17.90;92.60;;;;;;5028624;28;20201;-40
2022/05/04 12:57:32;;;;;;;11.32;7.22;;;18.00;92.30;;;;;;5028901;28;20200;-40
2022/05/04 12:59:59;;;;;;;17.60;8.25;;;18.00;92.20;;;;;;5033866;28;20572;-39
2022/05/04 13:02:26;;;;;;;8.73;7.50;;;18.10;91.70;;;;;;5048465;28;20220;-39
2022/05/04 13:04:54;;;;;;;11.07;8.30;;;18.10;92.00;;;;;;5028607;28;20666;-39
2022/05/04 13:07:26;;;;;;;13.32;8.73;;;18.20;92.10;;;;;;5034488;28;20200;-39
2022/05/04 13:09:59;;;;;;;12.77;8.93;;;18.30;91.90;;;;;;5045861;28;20580;-38
2022/05/04 13:12:29;;;;;;;14.30;9.45;;;18.30;92.00;;;;;;5029588;28;20225;-39
2022/05/04 13:14:59;;;;;;;14.68;9.05;;;18.40;92.00;;;;;;5027898;28;20205;-39
2022/05/04 13:17:28;;;;;;;15.75;10.25;;;18.40;92.20;;;;;;5024415;28;20196;-38
2022/05/04 13:19:58;;;;;;;15.52;10.88;;;18.40;92.20;;;;;;5037822;28;20312;-38
2022/05/04 13:22:27;;;;;;;16.23;11.55;;;18.40;92.10;;;;;;5028688;28;20288;-39
2022/05/04 13:24:55;;;;;;;12.70;9.80;;;18.50;92.00;;;;;;5035698;28;20642;-39
2022/05/04 13:27:23;;;;;;;15.88;10.80;;;18.50;92.30;;;;;;5042815;28;20382;-39
2022/05/04 13:29:50;;;;;;;18.50;11.80;;;18.50;92.50;;;;;;5027520;28;20244;-39
2022/05/04 13:32:17;;;;;;;15.55;11.32;;;18.60;92.50;;;;;;5027337;28;20231;-39
2022/05/04 13:34:45;;;;;;;14.18;11.23;;;18.60;92.60;;;;;;5028550;28;20209;-39
2022/05/04 13:37:12;;;;;;;12.15;9.57;;;18.70;92.70;;;;;;5034458;28;20275;-39
2022/05/04 13:39:39;;;;;;;14.07;9.98;;;18.80;92.90;;;;;;5030826;28;20306;-39
2022/05/04 13:42:07;;;;;;;12.30;9.20;;;18.90;92.70;;;;;;5028708;28;20209;-38
2022/05/04 13:44:34;;;;;;;19.25;11.20;;;18.90;92.90;;;;;;5028338;28;20574;-38
2022/05/04 13:47:02;;;;;;;15.98;10.68;;;19.00;92.70;;;;;;5042478;28;20209;-38
2022/05/04 13:49:32;;;;;;;17.95;12.23;;;19.20;93.00;;;;;;5042254;28;20196;-38
2022/05/04 13:54:45;;;;;;;15.48;11.50;;;19.30;93.00;;;;;;5028906;28;20208;-38
2022/05/04 13:57:12;;;;;;;14.00;10.35;;;19.40;92.50;;;;;;5039155;28;20268;-38
2022/05/04 13:59:40;;;;;;;16.80;12.82;;;19.50;92.80;;;;;;5028574;28;20345;-37
2022/05/04 14:02:08;;;;;;;16.45;11.88;;;19.60;92.10;;;;;;5025983;28;20269;-38
2022/05/04 14:04:37;;;;;;;14.23;11.60;;;19.60;92.80;;;;;;5037126;28;20246;-39
2022/05/04 14:07:05;;;;;;;12.40;10.00;;;19.70;92.70;;;;;;5029347;28;20201;-39
2022/05/04 14:09:32;;;;;;;14.38;10.38;;;19.80;93.00;;;;;;5029963;28;20721;-38
2022/05/04 14:12:00;;;;;;;13.05;9.25;;;19.90;93.00;;;;;;5025153;28;20224;-36
2022/05/04 14:17:13;;;;;;;15.45;10.95;;;20.00;93.00;;;;;;5044978;28;20203;-35
2022/05/04 14:19:41;;;;;;;11.65;9.23;;;20.00;92.60;;;;;;5052040;28;20211;-36
2022/05/04 14:22:11;;;;;;;15.45;10.70;;;20.00;92.90;;;;;;5051506;28;20220;-35
2022/05/04 14:24:38;;;;;;;12.30;9.30;;;20.10;92.40;;;;;;5049706;28;20226;-35
2022/05/04 14:27:05;;;;;;;13.43;9.00;;;20.20;92.80;;;;;;5045329;28;20284;-36
2022/05/04 14:29:32;;;;;;;11.35;8.52;;;20.20;92.70;;;;;;5033604;28;20271;-37
2022/05/04 14:32:00;;;;;;;10.52;8.60;;;20.20;92.70;;;;;;5038555;28;20216;-36
2022/05/04 14:34:27;;;;;;;14.13;9.20;;;20.20;92.70;;;;;;5047104;28;20816;-36
2022/05/04 14:36:55;;;;;;;12.48;8.02;;;20.20;92.70;;;;;;5050406;28;20656;-36
2022/05/04 14:39:22;;;;;;;10.70;8.40;;;20.20;92.90;;;;;;5037964;28;20224;-36
2022/05/04 14:41:50;;;;;;;9.80;7.38;;;20.20;92.70;;;;;;5034941;28;20211;-36
2022/05/04 14:44:18;;;;;;;9.55;7.43;;;20.20;92.70;;;;;;5041875;28;20210;-36
2022/05/04 14:46:46;;;;;;;10.40;7.07;;;20.20;92.60;;;;;;5043259;28;20748;-36